Thassos II — SVA3807 — position and weather

sailwx.info

Track history (hours):
 
Tides and Currents Weather Stations Pressure Air Temp Water Temp Dewpoint Dewpoint Depression Visibility Wind Speed Wind Dir Waves Ship Positions

Thassos II

Last reported at 2018-Jun-20 11:30 UTC. Time now 2018-Jun-20 11:42 UTC.
Position N 40°47' E 024°37'.

Length 108 m; draft 2.1 m.

Type: Passenger vessel. MMSI: 239691400.

Date/timePositionNaut miles runAvg speedWind from/ knotsBaromVisibWave heightAir tempDewpointWater temp
2018-Jun-20 11:30N 40°47' E 024°37'2 4.8
2018-Jun-20 11:00N 40°46' E 024°35'0 0.0
2018-Jun-20 10:30N 40°46' E 024°35'0 0.0
2018-Jun-20 10:00N 40°46' E 024°35'0 0.0
2018-Jun-20 09:30N 40°46' E 024°35'0 0.0
2018-Jun-20 09:01N 40°46' E 024°35'0 0.0
2018-Jun-20 08:31N 40°46' E 024°35'0 0.0
2018-Jun-20 08:00N 40°46' E 024°35'0 0.0
2018-Jun-20 07:31N 40°46' E 024°35'0 0.0
2018-Jun-20 07:01N 40°46' E 024°35'0 0.0
2018-Jun-20 06:31N 40°46' E 024°35'0 0.0
2018-Jun-20 06:00N 40°46' E 024°35'0 0.0
2018-Jun-20 05:30N 40°46' E 024°35'0 0.0
2018-Jun-19 11:46N 40°46' E 024°35'0 0.0
2018-Jun-19 11:30N 40°46' E 024°35'4 8.9
2018-Jun-19 11:00N 40°48' E 024°39'2 3.6
2018-Jun-19 10:30N 40°48' E 024°42'4 7.4
2018-Jun-19 10:00N 40°51' E 024°42'0 0.0
2018-Jun-19 09:30N 40°51' E 024°42'3 5.2
2018-Jun-19 09:01N 40°49' E 024°41'2 4.4
2018-Jun-19 08:31N 40°47' E 024°42'0 0.0
2018-Jun-19 08:00N 40°47' E 024°42'0 0.0
2018-Jun-19 07:30N 40°47' E 024°42'1 1.9
2018-Jun-19 07:01N 40°48' E 024°42'4 7.5
2018-Jun-19 06:31N 40°51' E 024°42'0 0.0
2018-Jun-19 06:01N 40°51' E 024°42'2 4.7
2018-Jun-19 05:30N 40°49' E 024°42'2 4.8
2018-Jun-19 05:00N 40°47' E 024°42'0 0.5
2018-Jun-19 04:31N 40°47' E 024°43'1 2.2
2018-Jun-19 04:01N 40°48' E 024°42'4 7.3
2018-Jun-19 03:30N 40°51' E 024°42'0 0.0
2018-Jun-19 03:00N 40°51' E 024°42'0 0.0
2018-Jun-18 20:55N 40°51' E 024°42'1 2.1
2018-Jun-18 20:30N 40°52' E 024°41'5 9.8
2018-Jun-18 20:00N 40°47' E 024°42'0 0.0
2018-Jun-18 19:31N 40°47' E 024°42'0 0.0
2018-Jun-18 19:01N 40°47' E 024°42'1 2.0
2018-Jun-18 18:31N 40°48' E 024°42'4 7.4
2018-Jun-18 18:00N 40°51' E 024°42'1 1.5
2018-Jun-18 17:31N 40°52' E 024°41'5 9.8
2018-Jun-18 17:01N 40°47' E 024°42'1 1.9
2018-Jun-18 16:30N 40°48' E 024°41'4 8.8
2018-Jun-18 16:00N 40°47' E 024°36'2 3.3
2018-Jun-18 15:30N 40°46' E 024°35'0 0.0
2018-Jun-18 14:57N 40°46' E 024°35'0 0.0
2018-Jun-18 14:31N 40°46' E 024°35'0 0.0
2018-Jun-18 14:00N 40°46' E 024°35'0 0.0
2018-Jun-18 13:30N 40°46' E 024°35'0 0.0
2018-Jun-17 10:16N 40°46' E 024°35'0 0.1
2018-Jun-17 10:00N 40°46' E 024°35'4 8.7
2018-Jun-17 09:30N 40°48' E 024°39'2 4.1
2018-Jun-17 09:00N 40°47' E 024°42'4 8.3
2018-Jun-17 08:30N 40°51' E 024°42'0 0.0
2018-Jun-17 08:00N 40°51' E 024°42'3 5.4
2018-Jun-17 07:30N 40°49' E 024°42'2 4.1
2018-Jun-17 07:00N 40°47' E 024°42'1 2.0
2018-Jun-17 06:30N 40°48' E 024°42'4 7.5
2018-Jun-17 06:01N 40°51' E 024°42'0 0.0
2018-Jun-17 05:30N 40°51' E 024°42'2 4.7
2018-Jun-17 05:00N 40°49' E 024°42'2 4.7
2018-Jun-17 04:30N 40°47' E 024°42'0 0.0
2018-Jun-17 04:00N 40°47' E 024°42'0 0.0
2018-Jun-17 03:30N 40°47' E 024°42'0 0.0
2018-Jun-17 03:00N 40°47' E 024°42'4 7.5
2018-Jun-17 02:30N 40°50' E 024°41'1 2.5
2018-Jun-17 01:59N 40°51' E 024°42'0 0.0
2018-Jun-17 01:30N 40°51' E 024°42'0 0.0
2018-Jun-16 19:37N 40°51' E 024°42'0 0.1
2018-Jun-16 19:31N 40°51' E 024°42'1 1.7
2018-Jun-16 19:01N 40°52' E 024°41'5 9.6
2018-Jun-16 18:30N 40°47' E 024°42'0 0.0
2018-Jun-16 18:01N 40°47' E 024°42'1 1.9
2018-Jun-16 17:30N 40°48' E 024°42'4 7.6
2018-Jun-16 17:01N 40°51' E 024°42'0 0.0
2018-Jun-16 16:31N 40°51' E 024°42'2 4.7
2018-Jun-16 16:01N 40°49' E 024°41'2 4.8
2018-Jun-16 15:30N 40°47' E 024°42'1 2.2
2018-Jun-16 15:01N 40°48' E 024°42'4 7.3
2018-Jun-16 14:31N 40°51' E 024°42'0 0.0
2018-Jun-16 14:00N 40°51' E 024°42'2 4.7
2018-Jun-16 13:30N 40°49' E 024°42'2 4.8
2018-Jun-16 13:01N 40°47' E 024°42'0 0.5
2018-Jun-16 12:30N 40°47' E 024°43'0 0.0
2018-Jun-16 12:00N 40°47' E 024°43'0 0.0
2018-Jun-15 21:08N 40°47' E 024°43'0 0.0
2018-Jun-15 21:00N 40°47' E 024°43'1 2.9
2018-Jun-15 20:30N 40°48' E 024°42'3 6.7
2018-Jun-15 20:00N 40°51' E 024°42'1 1.8
2018-Jun-15 19:30N 40°52' E 024°41'5 9.6
2018-Jun-15 19:00N 40°47' E 024°42'0 0.0
2018-Jun-15 18:30N 40°47' E 024°42'1 2.0
2018-Jun-15 18:00N 40°48' E 024°42'4 7.5
2018-Jun-15 17:30N 40°51' E 024°42'0 0.0
2018-Jun-15 17:00N 40°51' E 024°42'2 4.9
2018-Jun-15 16:30N 40°49' E 024°42'2 4.6
2018-Jun-15 16:00N 40°47' E 024°42'0 0.0
2018-Jun-15 15:30N 40°47' E 024°42'0 0.0
2018-Jun-15 15:00N 40°47' E 024°42'1 2.3
2018-Jun-15 14:30N 40°48' E 024°42'4 7.2
2018-Jun-15 14:00N 40°51' E 024°42'0 0.0
2018-Jun-15 13:30N 40°51' E 024°42'2 4.6
2018-Jun-15 13:00N 40°49' E 024°42'2 4.8
2018-Jun-15 12:30N 40°47' E 024°42'4 7.2
2018-Jun-15 12:00N 40°50' E 024°41'1 2.9
2018-Jun-15 11:30N 40°51' E 024°42'0 0.0
2018-Jun-15 11:00N 40°51' E 024°42'0 0.0
2018-Jun-14 13:37N 40°51' E 024°42'0 0.0
2018-Jun-14 13:30N 40°51' E 024°42'2 3.9
2018-Jun-14 13:00N 40°50' E 024°41'2 3.3
2018-Jun-14 12:30N 40°48' E 024°41'4 7.1
2018-Jun-14 12:00N 40°51' E 024°42'0 0.0
2018-Jun-14 11:30N 40°51' E 024°42'2 4.9
2018-Jun-14 11:00N 40°49' E 024°41'2 4.7
2018-Jun-14 10:30N 40°47' E 024°42'0 0.0
2018-Jun-14 10:00N 40°47' E 024°42'1 2.9
2018-Jun-14 09:30N 40°48' E 024°41'3 6.9
2018-Jun-14 09:00N 40°51' E 024°42'0 0.0
2018-Jun-14 08:30N 40°51' E 024°42'2 4.9
2018-Jun-14 08:00N 40°49' E 024°41'2 4.8
2018-Jun-14 07:30N 40°47' E 024°42'0 0.0
2018-Jun-14 07:00N 40°47' E 024°42'0 0.0
2018-Jun-14 06:30N 40°47' E 024°42'0 0.0
2018-Jun-14 06:00N 40°47' E 024°42'1 2.1
2018-Jun-14 05:30N 40°48' E 024°42'4 7.4
2018-Jun-14 05:00N 40°51' E 024°42'0 0.0
2018-Jun-14 04:30N 40°51' E 024°42'2 4.9
2018-Jun-14 04:00N 40°49' E 024°41'2 4.7
2018-Jun-14 03:30N 40°47' E 024°42'0 0.0
2018-Jun-13 16:58N 40°47' E 024°42'1 2.4
2018-Jun-13 16:30N 40°48' E 024°42'4 7.4
2018-Jun-13 16:00N 40°51' E 024°42'0 0.0
2018-Jun-13 15:30N 40°51' E 024°42'2 4.8
2018-Jun-13 15:00N 40°49' E 024°41'2 4.7
2018-Jun-13 14:30N 40°47' E 024°42'0 0.0
2018-Jun-13 14:00N 40°47' E 024°42'1 2.8
2018-Jun-13 13:30N 40°48' E 024°42'3 6.7
2018-Jun-13 13:00N 40°51' E 024°42'0 0.0
2018-Jun-13 12:30N 40°51' E 024°42'2 4.7
2018-Jun-13 12:00N 40°49' E 024°41'2 4.8
2018-Jun-13 11:30N 40°47' E 024°42'0 0.0
2018-Jun-13 11:00N 40°47' E 024°42'0 0.0
2018-Jun-13 10:30N 40°47' E 024°42'1 2.7
2018-Jun-13 10:00N 40°48' E 024°41'3 6.9
2018-Jun-13 09:30N 40°51' E 024°42'0 0.0
2018-Jun-13 09:00N 40°51' E 024°42'2 4.7
2018-Jun-13 08:30N 40°49' E 024°42'2 4.8
2018-Jun-13 08:00N 40°47' E 024°42'1 1.4
2018-Jun-13 07:30N 40°47' E 024°42'3 6.1
2018-Jun-13 07:00N 40°48' E 024°38'4 7.2
2018-Jun-13 06:30N 40°46' E 024°35'4 7.1
2018-Jun-13 06:00N 40°47' E 024°30'5 9.4
2018-Jun-13 05:30N 40°49' E 024°25'5 9.5
2018-Jun-13 05:00N 40°51' E 024°19'1 3.0
2018-Jun-13 04:30N 40°50' E 024°21'510.9
2018-Jun-13 04:00N 40°48' E 024°27'510.5
2018-Jun-13 03:30N 40°46' E 024°34'1 1.7
2018-Jun-13 03:00N 40°46' E 024°35'0 0.0
2018-Jun-12 15:06N 40°46' E 024°35'0 0.1
2018-Jun-12 15:00N 40°46' E 024°35'0 0.0
2018-Jun-12 14:30N 40°46' E 024°35'0 0.0
2018-Jun-12 14:00N 40°46' E 024°35'0 0.0
2018-Jun-12 13:30N 40°46' E 024°35'0 0.0
2018-Jun-12 13:00N 40°46' E 024°35'1 1.3
2018-Jun-12 12:30N 40°46' E 024°35'4 8.6
2018-Jun-12 12:00N 40°48' E 024°40'1 2.1
2018-Jun-12 11:30N 40°48' E 024°41'3 7.1
2018-Jun-12 11:00N 40°51' E 024°42'0 0.0
2018-Jun-12 10:30N 40°51' E 024°42'2 4.9
2018-Jun-12 10:00N 40°49' E 024°41'2 4.8
2018-Jun-12 09:30N 40°47' E 024°42'0 0.0
2018-Jun-12 09:00N 40°47' E 024°42'0 0.0
2018-Jun-12 08:30N 40°47' E 024°42'0 0.0
2018-Jun-12 08:00N 40°47' E 024°42'1 2.5
2018-Jun-12 07:30N 40°48' E 024°41'4 7.1
2018-Jun-12 07:00N 40°51' E 024°42'0 0.0
2018-Jun-12 06:30N 40°51' E 024°42'2 4.8
2018-Jun-12 06:00N 40°49' E 024°42'2 4.6
2018-Jun-12 05:30N 40°47' E 024°42'1 2.3
2018-Jun-12 05:00N 40°48' E 024°42'4 7.3
2018-Jun-12 04:30N 40°51' E 024°42'0 0.0
2018-Jun-12 04:00N 40°51' E 024°42'2 5.0
2018-Jun-12 03:30N 40°49' E 024°42'2 4.4
2018-Jun-12 03:00N 40°47' E 024°42'0 0.5
2018-Jun-12 02:30N 40°47' E 024°43'0 0.0
2018-Jun-11 16:11N 40°47' E 024°43'0 0.0
2018-Jun-11 16:00N 40°47' E 024°43'1 2.5
2018-Jun-11 15:30N 40°48' E 024°42'4 7.2
2018-Jun-11 15:00N 40°51' E 024°42'0 0.0
2018-Jun-11 14:31N 40°51' E 024°42'2 4.8
2018-Jun-11 14:00N 40°49' E 024°41'2 4.8
2018-Jun-11 13:30N 40°47' E 024°42'1 2.9
2018-Jun-11 13:00N 40°48' E 024°41'3 6.9
2018-Jun-11 12:30N 40°51' E 024°42'0 0.0
2018-Jun-11 12:01N 40°51' E 024°42'2 4.5
2018-Jun-11 11:31N 40°49' E 024°41'3 5.0
2018-Jun-11 11:01N 40°47' E 024°42'0 0.5
2018-Jun-11 10:29N 40°47' E 024°43'0 0.0
2018-Jun-11 10:01N 40°47' E 024°43'0 0.0
2018-Jun-11 09:31N 40°47' E 024°43'0 0.0
2018-Jun-11 09:01N 40°47' E 024°43'0 0.0
2018-Jun-11 08:31N 40°47' E 024°43'0 0.0
2018-Jun-11 08:01N 40°47' E 024°43'0 0.0
2018-Jun-11 07:31N 40°47' E 024°43'0 0.0
2018-Jun-11 07:00N 40°47' E 024°43'0 0.0
2018-Jun-11 06:31N 40°47' E 024°43'0 0.0
2018-Jun-11 06:01N 40°47' E 024°43'1 3.0
2018-Jun-11 05:31N 40°48' E 024°41'3 6.9
2018-Jun-11 05:01N 40°51' E 024°42'0 0.0
2018-Jun-11 04:30N 40°51' E 024°42'2 4.9
2018-Jun-11 04:01N 40°49' E 024°42'2 4.5
2018-Jun-11 03:30N 40°47' E 024°42'4 7.2
2018-Jun-11 03:01N 40°48' E 024°38'3 6.5
2018-Jun-11 02:31N 40°46' E 024°35'0 0.0
2018-Jun-10 17:40N 40°46' E 024°35'0 0.0
2018-Jun-10 17:31N 40°46' E 024°35'4 8.0
2018-Jun-10 17:01N 40°48' E 024°39'3 5.8
2018-Jun-10 16:30N 40°47' E 024°42'1 2.4
2018-Jun-10 16:01N 40°48' E 024°42'4 7.1
2018-Jun-10 15:31N 40°51' E 024°42'0 0.0
2018-Jun-10 15:01N 40°51' E 024°42'5 4.6
2018-Jun-10 14:00N 40°47' E 024°42'0 0.0
2018-Jun-10 13:31N 40°47' E 024°42'0 0.0
2018-Jun-10 13:01N 40°47' E 024°42'1 2.5
2018-Jun-10 12:31N 40°48' E 024°41'4 7.1
2018-Jun-10 12:01N 40°51' E 024°42'0 0.0
2018-Jun-10 11:31N 40°51' E 024°42'  
Track history (hours):
 
Tides and Currents Weather Stations Pressure Air Temp Water Temp Dewpoint Dewpoint Depression Visibility Wind Speed Wind Dir Waves Ship Positions

Thassos II

Last reported at 2018-Jun-20 11:30 UTC. Time now 2018-Jun-20 11:42 UTC.
Position N 40°47' E 024°37'.

Length 108 m; draft 2.1 m.

Type: Passenger vessel. MMSI: 239691400.

Date/timePositionNaut miles runAvg speedWind from/ knotsBaromVisibWave heightAir tempDewpointWater temp
2018-Jun-20 11:30N 40°47' E 024°37'2 4.8
2018-Jun-20 11:00N 40°46' E 024°35'0 0.0
2018-Jun-20 10:30N 40°46' E 024°35'0 0.0
2018-Jun-20 10:00N 40°46' E 024°35'0 0.0
2018-Jun-20 09:30N 40°46' E 024°35'0 0.0
2018-Jun-20 09:01N 40°46' E 024°35'0 0.0
2018-Jun-20 08:31N 40°46' E 024°35'0 0.0
2018-Jun-20 08:00N 40°46' E 024°35'0 0.0
2018-Jun-20 07:31N 40°46' E 024°35'0 0.0
2018-Jun-20 07:01N 40°46' E 024°35'0 0.0
2018-Jun-20 06:31N 40°46' E 024°35'0 0.0
2018-Jun-20 06:00N 40°46' E 024°35'0 0.0
2018-Jun-20 05:30N 40°46' E 024°35'0 0.0
2018-Jun-19 11:46N 40°46' E 024°35'0 0.0
2018-Jun-19 11:30N 40°46' E 024°35'4 8.9
2018-Jun-19 11:00N 40°48' E 024°39'2 3.6
2018-Jun-19 10:30N 40°48' E 024°42'4 7.4
2018-Jun-19 10:00N 40°51' E 024°42'0 0.0
2018-Jun-19 09:30N 40°51' E 024°42'3 5.2
2018-Jun-19 09:01N 40°49' E 024°41'2 4.4
2018-Jun-19 08:31N 40°47' E 024°42'0 0.0
2018-Jun-19 08:00N 40°47' E 024°42'0 0.0
2018-Jun-19 07:30N 40°47' E 024°42'1 1.9
2018-Jun-19 07:01N 40°48' E 024°42'4 7.5
2018-Jun-19 06:31N 40°51' E 024°42'0 0.0
2018-Jun-19 06:01N 40°51' E 024°42'2 4.7
2018-Jun-19 05:30N 40°49' E 024°42'2 4.8
2018-Jun-19 05:00N 40°47' E 024°42'0 0.5
2018-Jun-19 04:31N 40°47' E 024°43'1 2.2
2018-Jun-19 04:01N 40°48' E 024°42'4 7.3
2018-Jun-19 03:30N 40°51' E 024°42'0 0.0
2018-Jun-19 03:00N 40°51' E 024°42'0 0.0
2018-Jun-18 20:55N 40°51' E 024°42'1 2.1
2018-Jun-18 20:30N 40°52' E 024°41'5 9.8
2018-Jun-18 20:00N 40°47' E 024°42'0 0.0
2018-Jun-18 19:31N 40°47' E 024°42'0 0.0
2018-Jun-18 19:01N 40°47' E 024°42'1 2.0
2018-Jun-18 18:31N 40°48' E 024°42'4 7.4
2018-Jun-18 18:00N 40°51' E 024°42'1 1.5
2018-Jun-18 17:31N 40°52' E 024°41'5 9.8
2018-Jun-18 17:01N 40°47' E 024°42'1 1.9
2018-Jun-18 16:30N 40°48' E 024°41'4 8.8
2018-Jun-18 16:00N 40°47' E 024°36'2 3.3
2018-Jun-18 15:30N 40°46' E 024°35'0 0.0
2018-Jun-18 14:57N 40°46' E 024°35'0 0.0
2018-Jun-18 14:31N 40°46' E 024°35'0 0.0
2018-Jun-18 14:00N 40°46' E 024°35'0 0.0
2018-Jun-18 13:30N 40°46' E 024°35'0 0.0
2018-Jun-17 10:16N 40°46' E 024°35'0 0.1
2018-Jun-17 10:00N 40°46' E 024°35'4 8.7
2018-Jun-17 09:30N 40°48' E 024°39'2 4.1
2018-Jun-17 09:00N 40°47' E 024°42'4 8.3
2018-Jun-17 08:30N 40°51' E 024°42'0 0.0
2018-Jun-17 08:00N 40°51' E 024°42'3 5.4
2018-Jun-17 07:30N 40°49' E 024°42'2 4.1
2018-Jun-17 07:00N 40°47' E 024°42'1 2.0
2018-Jun-17 06:30N 40°48' E 024°42'4 7.5
2018-Jun-17 06:01N 40°51' E 024°42'0 0.0
2018-Jun-17 05:30N 40°51' E 024°42'2 4.7
2018-Jun-17 05:00N 40°49' E 024°42'2 4.7
2018-Jun-17 04:30N 40°47' E 024°42'0 0.0
2018-Jun-17 04:00N 40°47' E 024°42'0 0.0
2018-Jun-17 03:30N 40°47' E 024°42'0 0.0
2018-Jun-17 03:00N 40°47' E 024°42'4 7.5
2018-Jun-17 02:30N 40°50' E 024°41'1 2.5
2018-Jun-17 01:59N 40°51' E 024°42'0 0.0
2018-Jun-17 01:30N 40°51' E 024°42'0 0.0
2018-Jun-16 19:37N 40°51' E 024°42'0 0.1
2018-Jun-16 19:31N 40°51' E 024°42'1 1.7
2018-Jun-16 19:01N 40°52' E 024°41'5 9.6
2018-Jun-16 18:30N 40°47' E 024°42'0 0.0
2018-Jun-16 18:01N 40°47' E 024°42'1 1.9
2018-Jun-16 17:30N 40°48' E 024°42'4 7.6
2018-Jun-16 17:01N 40°51' E 024°42'0 0.0
2018-Jun-16 16:31N 40°51' E 024°42'2 4.7
2018-Jun-16 16:01N 40°49' E 024°41'2 4.8
2018-Jun-16 15:30N 40°47' E 024°42'1 2.2
2018-Jun-16 15:01N 40°48' E 024°42'4 7.3
2018-Jun-16 14:31N 40°51' E 024°42'0 0.0
2018-Jun-16 14:00N 40°51' E 024°42'2 4.7
2018-Jun-16 13:30N 40°49' E 024°42'2 4.8
2018-Jun-16 13:01N 40°47' E 024°42'0 0.5
2018-Jun-16 12:30N 40°47' E 024°43'0 0.0
2018-Jun-16 12:00N 40°47' E 024°43'0 0.0
2018-Jun-15 21:08N 40°47' E 024°43'0 0.0
2018-Jun-15 21:00N 40°47' E 024°43'1 2.9
2018-Jun-15 20:30N 40°48' E 024°42'3 6.7
2018-Jun-15 20:00N 40°51' E 024°42'1 1.8
2018-Jun-15 19:30N 40°52' E 024°41'5 9.6
2018-Jun-15 19:00N 40°47' E 024°42'0 0.0
2018-Jun-15 18:30N 40°47' E 024°42'1 2.0
2018-Jun-15 18:00N 40°48' E 024°42'4 7.5
2018-Jun-15 17:30N 40°51' E 024°42'0 0.0
2018-Jun-15 17:00N 40°51' E 024°42'2 4.9
2018-Jun-15 16:30N 40°49' E 024°42'2 4.6
2018-Jun-15 16:00N 40°47' E 024°42'0 0.0
2018-Jun-15 15:30N 40°47' E 024°42'0 0.0
2018-Jun-15 15:00N 40°47' E 024°42'1 2.3
2018-Jun-15 14:30N 40°48' E 024°42'4 7.2
2018-Jun-15 14:00N 40°51' E 024°42'0 0.0
2018-Jun-15 13:30N 40°51' E 024°42'2 4.6
2018-Jun-15 13:00N 40°49' E 024°42'2 4.8
2018-Jun-15 12:30N 40°47' E 024°42'4 7.2
2018-Jun-15 12:00N 40°50' E 024°41'1 2.9
2018-Jun-15 11:30N 40°51' E 024°42'0 0.0
2018-Jun-15 11:00N 40°51' E 024°42'0 0.0
2018-Jun-14 13:37N 40°51' E 024°42'0 0.0
2018-Jun-14 13:30N 40°51' E 024°42'2 3.9
2018-Jun-14 13:00N 40°50' E 024°41'2 3.3
2018-Jun-14 12:30N 40°48' E 024°41'4 7.1
2018-Jun-14 12:00N 40°51' E 024°42'0 0.0
2018-Jun-14 11:30N 40°51' E 024°42'2 4.9
2018-Jun-14 11:00N 40°49' E 024°41'2 4.7
2018-Jun-14 10:30N 40°47' E 024°42'0 0.0
2018-Jun-14 10:00N 40°47' E 024°42'1 2.9
2018-Jun-14 09:30N 40°48' E 024°41'3 6.9
2018-Jun-14 09:00N 40°51' E 024°42'0 0.0
2018-Jun-14 08:30N 40°51' E 024°42'2 4.9
2018-Jun-14 08:00N 40°49' E 024°41'2 4.8
2018-Jun-14 07:30N 40°47' E 024°42'0 0.0
2018-Jun-14 07:00N 40°47' E 024°42'0 0.0
2018-Jun-14 06:30N 40°47' E 024°42'0 0.0
2018-Jun-14 06:00N 40°47' E 024°42'1 2.1
2018-Jun-14 05:30N 40°48' E 024°42'4 7.4
2018-Jun-14 05:00N 40°51' E 024°42'0 0.0
2018-Jun-14 04:30N 40°51' E 024°42'2 4.9
2018-Jun-14 04:00N 40°49' E 024°41'2 4.7
2018-Jun-14 03:30N 40°47' E 024°42'0 0.0
2018-Jun-13 16:58N 40°47' E 024°42'1 2.4
2018-Jun-13 16:30N 40°48' E 024°42'4 7.4
2018-Jun-13 16:00N 40°51' E 024°42'0 0.0
2018-Jun-13 15:30N 40°51' E 024°42'2 4.8
2018-Jun-13 15:00N 40°49' E 024°41'2 4.7
2018-Jun-13 14:30N 40°47' E 024°42'0 0.0
2018-Jun-13 14:00N 40°47' E 024°42'1 2.8
2018-Jun-13 13:30N 40°48' E 024°42'3 6.7
2018-Jun-13 13:00N 40°51' E 024°42'0 0.0
2018-Jun-13 12:30N 40°51' E 024°42'2 4.7
2018-Jun-13 12:00N 40°49' E 024°41'2 4.8
2018-Jun-13 11:30N 40°47' E 024°42'0 0.0
2018-Jun-13 11:00N 40°47' E 024°42'0 0.0
2018-Jun-13 10:30N 40°47' E 024°42'1 2.7
2018-Jun-13 10:00N 40°48' E 024°41'3 6.9
2018-Jun-13 09:30N 40°51' E 024°42'0 0.0
2018-Jun-13 09:00N 40°51' E 024°42'2 4.7
2018-Jun-13 08:30N 40°49' E 024°42'2 4.8
2018-Jun-13 08:00N 40°47' E 024°42'1 1.4
2018-Jun-13 07:30N 40°47' E 024°42'3 6.1
2018-Jun-13 07:00N 40°48' E 024°38'4 7.2
2018-Jun-13 06:30N 40°46' E 024°35'4 7.1
2018-Jun-13 06:00N 40°47' E 024°30'5 9.4
2018-Jun-13 05:30N 40°49' E 024°25'5 9.5
2018-Jun-13 05:00N 40°51' E 024°19'1 3.0
2018-Jun-13 04:30N 40°50' E 024°21'510.9
2018-Jun-13 04:00N 40°48' E 024°27'510.5
2018-Jun-13 03:30N 40°46' E 024°34'1 1.7
2018-Jun-13 03:00N 40°46' E 024°35'0 0.0
2018-Jun-12 15:06N 40°46' E 024°35'0 0.1
2018-Jun-12 15:00N 40°46' E 024°35'0 0.0
2018-Jun-12 14:30N 40°46' E 024°35'0 0.0
2018-Jun-12 14:00N 40°46' E 024°35'0 0.0
2018-Jun-12 13:30N 40°46' E 024°35'0 0.0
2018-Jun-12 13:00N 40°46' E 024°35'1 1.3
2018-Jun-12 12:30N 40°46' E 024°35'4 8.6
2018-Jun-12 12:00N 40°48' E 024°40'1 2.1
2018-Jun-12 11:30N 40°48' E 024°41'3 7.1
2018-Jun-12 11:00N 40°51' E 024°42'0 0.0
2018-Jun-12 10:30N 40°51' E 024°42'2 4.9
2018-Jun-12 10:00N 40°49' E 024°41'2 4.8
2018-Jun-12 09:30N 40°47' E 024°42'0 0.0
2018-Jun-12 09:00N 40°47' E 024°42'0 0.0
2018-Jun-12 08:30N 40°47' E 024°42'0 0.0
2018-Jun-12 08:00N 40°47' E 024°42'1 2.5
2018-Jun-12 07:30N 40°48' E 024°41'4 7.1
2018-Jun-12 07:00N 40°51' E 024°42'0 0.0
2018-Jun-12 06:30N 40°51' E 024°42'2 4.8
2018-Jun-12 06:00N 40°49' E 024°42'2 4.6
2018-Jun-12 05:30N 40°47' E 024°42'1 2.3
2018-Jun-12 05:00N 40°48' E 024°42'4 7.3
2018-Jun-12 04:30N 40°51' E 024°42'0 0.0
2018-Jun-12 04:00N 40°51' E 024°42'2 5.0
2018-Jun-12 03:30N 40°49' E 024°42'2 4.4
2018-Jun-12 03:00N 40°47' E 024°42'0 0.5
2018-Jun-12 02:30N 40°47' E 024°43'0 0.0
2018-Jun-11 16:11N 40°47' E 024°43'0 0.0
2018-Jun-11 16:00N 40°47' E 024°43'1 2.5
2018-Jun-11 15:30N 40°48' E 024°42'4 7.2
2018-Jun-11 15:00N 40°51' E 024°42'0 0.0
2018-Jun-11 14:31N 40°51' E 024°42'2 4.8
2018-Jun-11 14:00N 40°49' E 024°41'2 4.8
2018-Jun-11 13:30N 40°47' E 024°42'1 2.9
2018-Jun-11 13:00N 40°48' E 024°41'3 6.9
2018-Jun-11 12:30N 40°51' E 024°42'0 0.0
2018-Jun-11 12:01N 40°51' E 024°42'2 4.5
2018-Jun-11 11:31N 40°49' E 024°41'3 5.0
2018-Jun-11 11:01N 40°47' E 024°42'0 0.5
2018-Jun-11 10:29N 40°47' E 024°43'0 0.0
2018-Jun-11 10:01N 40°47' E 024°43'0 0.0
2018-Jun-11 09:31N 40°47' E 024°43'0 0.0
2018-Jun-11 09:01N 40°47' E 024°43'0 0.0
2018-Jun-11 08:31N 40°47' E 024°43'0 0.0
2018-Jun-11 08:01N 40°47' E 024°43'0 0.0
2018-Jun-11 07:31N 40°47' E 024°43'0 0.0
2018-Jun-11 07:00N 40°47' E 024°43'0 0.0
2018-Jun-11 06:31N 40°47' E 024°43'0 0.0
2018-Jun-11 06:01N 40°47' E 024°43'1 3.0
2018-Jun-11 05:31N 40°48' E 024°41'3 6.9
2018-Jun-11 05:01N 40°51' E 024°42'0 0.0
2018-Jun-11 04:30N 40°51' E 024°42'2 4.9
2018-Jun-11 04:01N 40°49' E 024°42'2 4.5
2018-Jun-11 03:30N 40°47' E 024°42'4 7.2
2018-Jun-11 03:01N 40°48' E 024°38'3 6.5
2018-Jun-11 02:31N 40°46' E 024°35'0 0.0
2018-Jun-10 17:40N 40°46' E 024°35'0 0.0
2018-Jun-10 17:31N 40°46' E 024°35'4 8.0
2018-Jun-10 17:01N 40°48' E 024°39'3 5.8
2018-Jun-10 16:30N 40°47' E 024°42'1 2.4
2018-Jun-10 16:01N 40°48' E 024°42'4 7.1
2018-Jun-10 15:31N 40°51' E 024°42'0 0.0
2018-Jun-10 15:01N 40°51' E 024°42'5 4.6
2018-Jun-10 14:00N 40°47' E 024°42'0 0.0
2018-Jun-10 13:31N 40°47' E 024°42'0 0.0
2018-Jun-10 13:01N 40°47' E 024°42'1 2.5
2018-Jun-10 12:31N 40°48' E 024°41'4 7.1
2018-Jun-10 12:01N 40°51' E 024°42'0 0.0
2018-Jun-10 11:31N 40°51' E 024°42'  

Dump ship's entire track history